createdAt,value
2019-03-24T00:01:41.065Z,10.00
2019-03-24T00:04:04.807Z,10.13
2019-03-24T00:06:32.836Z,8.78
2019-03-24T00:09:00.859Z,10.95
2019-03-24T00:11:28.932Z,10.80
2019-03-24T00:13:56.972Z,7.75
2019-03-24T00:16:25.480Z,7.45
2019-03-24T00:18:53.585Z,9.40
2019-03-24T00:21:21.614Z,7.78
2019-03-24T00:23:49.654Z,9.15
2019-03-24T00:26:17.690Z,8.83
2019-03-24T00:28:45.784Z,13.03
2019-03-24T00:31:13.900Z,11.55
2019-03-24T00:33:41.980Z,9.28
2019-03-24T00:36:10.064Z,9.25
2019-03-24T00:38:38.076Z,10.80
2019-03-24T00:41:06.846Z,11.05
2019-03-24T00:43:34.873Z,8.90
2019-03-24T00:46:02.950Z,11.90
2019-03-24T00:48:31.014Z,12.60
2019-03-24T00:50:59.019Z,8.88
2019-03-24T00:53:27.037Z,8.85
2019-03-24T00:55:55.098Z,8.90
2019-03-24T00:58:23.230Z,9.15
2019-03-24T01:00:51.417Z,8.65
2019-03-24T01:03:19.537Z,10.90
2019-03-24T01:05:47.571Z,10.72
2019-03-24T01:08:15.574Z,11.38
2019-03-24T01:10:43.641Z,13.30
2019-03-24T01:13:11.659Z,11.10
2019-03-24T01:15:47.348Z,9.75
2019-03-24T01:18:09.443Z,8.45
2019-03-24T01:20:37.462Z,11.50
2019-03-24T01:23:05.483Z,8.43
2019-03-24T01:25:33.508Z,7.40
2019-03-24T01:28:01.534Z,9.78
2019-03-24T01:30:29.571Z,8.65
2019-03-24T01:32:57.596Z,7.78
2019-03-24T01:35:25.608Z,9.70
2019-03-24T01:37:53.661Z,7.67
2019-03-24T01:40:21.783Z,8.05
2019-03-24T01:42:49.799Z,8.20
2019-03-24T01:45:17.862Z,8.65
2019-03-24T01:47:45.888Z,8.85
2019-03-24T01:50:13.979Z,9.88
2019-03-24T01:52:42.114Z,8.60
2019-03-24T01:55:10.157Z,7.45
2019-03-24T01:57:38.175Z,10.80
2019-03-24T02:00:06.492Z,8.45
2019-03-24T02:02:34.520Z,10.32
2019-03-24T02:05:02.616Z,8.75
2019-03-24T02:07:30.659Z,9.67
2019-03-24T02:09:58.723Z,7.95
2019-03-24T02:12:26.787Z,9.13
2019-03-24T02:14:54.874Z,8.90
2019-03-24T02:17:23.315Z,8.63
2019-03-24T02:19:51.349Z,7.05
2019-03-24T02:22:19.364Z,7.85
2019-03-24T02:24:47.462Z,8.70
2019-03-24T02:27:15.748Z,9.10
2019-03-24T02:29:43.879Z,11.45
2019-03-24T02:32:11.967Z,5.60
2019-03-24T02:34:39.978Z,7.95
2019-03-24T02:37:08.016Z,10.03
2019-03-24T02:39:36.113Z,8.78
2019-03-24T02:42:04.116Z,7.67
2019-03-24T02:44:32.177Z,8.63
2019-03-24T02:47:00.226Z,9.53
2019-03-24T02:49:28.241Z,7.12
2019-03-24T02:51:56.256Z,9.00
2019-03-24T02:54:24.363Z,7.95
2019-03-24T02:56:52.398Z,7.13
2019-03-24T02:59:20.437Z,11.43
2019-03-24T03:01:48.475Z,8.98
2019-03-24T03:04:16.510Z,8.93
2019-03-24T03:06:44.554Z,8.05
2019-03-24T03:09:12.613Z,11.00
2019-03-24T03:11:40.770Z,7.67
2019-03-24T03:14:08.812Z,10.32
2019-03-24T03:16:38.607Z,8.30
2019-03-24T03:19:06.644Z,10.98
2019-03-24T03:21:34.702Z,7.78
2019-03-24T03:24:02.955Z,11.00
2019-03-24T03:26:30.990Z,7.25
2019-03-24T03:28:59.027Z,9.55
2019-03-24T03:31:27.174Z,8.45
2019-03-24T03:33:55.320Z,9.55
2019-03-24T03:36:23.371Z,9.63
2019-03-24T03:38:51.398Z,5.80
2019-03-24T03:41:19.445Z,6.00
2019-03-24T03:43:47.477Z,11.95
2019-03-24T03:46:15.497Z,10.60
2019-03-24T03:48:43.596Z,7.10
2019-03-24T03:51:11.686Z,8.23
2019-03-24T03:53:39.726Z,8.70
2019-03-24T03:56:07.748Z,9.18
2019-03-24T03:58:35.809Z,7.47
2019-03-24T04:01:03.825Z,10.40
2019-03-24T04:03:31.838Z,7.53
2019-03-24T04:06:00.030Z,9.03
2019-03-24T04:08:28.047Z,10.60
2019-03-24T04:10:56.058Z,7.60
2019-03-24T04:13:24.227Z,8.90
2019-03-24T04:15:52.257Z,7.55
2019-03-24T04:18:20.269Z,9.33
2019-03-24T04:20:48.294Z,5.67
2019-03-24T04:23:16.749Z,6.62
2019-03-24T04:25:44.792Z,6.75
2019-03-24T04:28:12.797Z,8.70
2019-03-24T04:30:40.818Z,10.40
2019-03-24T04:33:09.006Z,7.42
2019-03-24T04:35:37.108Z,8.75
2019-03-24T04:38:05.136Z,10.15
2019-03-24T04:40:33.184Z,7.33
2019-03-24T04:43:01.214Z,7.30
2019-03-24T04:45:29.238Z,10.00
2019-03-24T04:47:57.329Z,8.25
2019-03-24T04:50:25.362Z,10.20
2019-03-24T04:52:53.375Z,7.17
2019-03-24T04:55:21.434Z,8.33
2019-03-24T04:57:49.454Z,8.55
2019-03-24T05:00:17.464Z,8.23
2019-03-24T05:02:45.518Z,8.53
2019-03-24T05:05:13.561Z,8.05
2019-03-24T05:07:41.607Z,6.47
2019-03-24T05:10:09.673Z,8.95
2019-03-24T05:12:37.695Z,7.65
2019-03-24T05:15:05.719Z,7.83
2019-03-24T05:17:33.854Z,9.28
2019-03-24T05:20:01.904Z,6.95
2019-03-24T05:22:29.924Z,7.00
2019-03-24T05:24:57.972Z,7.50
2019-03-24T05:27:25.984Z,8.35
2019-03-24T05:29:54.014Z,7.30
2019-03-24T05:32:22.379Z,8.38
2019-03-24T05:34:53.158Z,8.10
2019-03-24T05:37:21.192Z,6.40
2019-03-24T05:39:49.316Z,6.12
2019-03-24T05:42:17.437Z,6.10
2019-03-24T05:44:45.417Z,8.73
2019-03-24T05:47:13.470Z,7.55
2019-03-24T05:49:41.505Z,8.40
2019-03-24T05:52:09.545Z,7.23
2019-03-24T05:54:37.593Z,7.43
2019-03-24T05:57:05.609Z,6.47
2019-03-24T05:59:34.030Z,6.67
2019-03-24T06:02:02.134Z,6.95
2019-03-24T06:04:30.151Z,6.47
2019-03-24T06:06:58.202Z,7.70
2019-03-24T06:09:26.220Z,7.90
2019-03-24T06:11:54.248Z,7.67
2019-03-24T06:14:22.491Z,7.78
2019-03-24T06:16:50.650Z,6.08
2019-03-24T06:19:18.916Z,6.00
2019-03-24T06:21:46.937Z,6.35
2019-03-24T06:24:15.089Z,6.65
2019-03-24T06:26:43.153Z,7.90
2019-03-24T06:29:11.243Z,8.38
2019-03-24T06:31:39.557Z,8.13
2019-03-24T06:34:07.572Z,6.30
2019-03-24T06:36:35.585Z,5.87
2019-03-24T06:39:04.751Z,7.00
2019-03-24T06:41:32.931Z,6.47
2019-03-24T06:44:00.977Z,7.35
2019-03-24T06:46:29.023Z,5.55
2019-03-24T06:48:57.095Z,6.83
2019-03-24T06:51:26.047Z,6.25
2019-03-24T06:53:54.222Z,6.17
2019-03-24T06:56:22.269Z,8.10
2019-03-24T06:58:50.282Z,8.60
2019-03-24T07:01:18.362Z,6.67
2019-03-24T07:03:46.571Z,7.03
2019-03-24T07:06:14.614Z,6.75
2019-03-24T07:08:42.642Z,7.92
2019-03-24T07:11:13.675Z,9.45
2019-03-24T07:13:40.625Z,6.15
2019-03-24T07:16:08.655Z,7.30
2019-03-24T07:18:36.701Z,7.05
2019-03-24T07:21:04.745Z,5.92
2019-03-24T07:23:32.781Z,5.53
2019-03-24T07:26:00.823Z,6.70
2019-03-24T07:28:28.834Z,5.95
2019-03-24T07:30:56.851Z,10.28
2019-03-24T07:33:25.059Z,7.00
2019-03-24T07:35:53.089Z,11.15
2019-03-24T07:38:21.103Z,8.65
2019-03-24T07:40:49.177Z,11.22
2019-03-24T07:43:17.190Z,14.18
2019-03-24T07:45:45.262Z,25.25
2019-03-24T07:48:19.052Z,22.48
2019-03-24T07:50:44.957Z,14.47
2019-03-24T07:53:13.009Z,16.52
2019-03-24T07:55:41.168Z,11.75
2019-03-24T07:58:09.188Z,9.45
2019-03-24T08:00:37.240Z,9.90
2019-03-24T08:03:05.298Z,9.10
2019-03-24T08:05:33.394Z,9.88
2019-03-24T08:08:01.446Z,12.78
2019-03-24T08:10:29.486Z,8.78
2019-03-24T08:12:57.574Z,10.98
2019-03-24T08:15:25.601Z,10.15
2019-03-24T08:17:53.702Z,9.48
2019-03-24T08:20:21.737Z,12.75
2019-03-24T08:22:49.756Z,13.15
2019-03-24T08:25:19.166Z,12.18
2019-03-24T08:27:47.367Z,11.10
2019-03-24T08:30:15.388Z,12.53
2019-03-24T08:32:43.484Z,11.35
2019-03-24T08:35:11.576Z,10.38
2019-03-24T08:37:39.660Z,12.68
2019-03-24T08:40:07.705Z,10.60
2019-03-24T08:42:35.776Z,13.83
2019-03-24T08:45:03.776Z,11.95
2019-03-24T08:47:31.828Z,10.90
2019-03-24T08:50:00.020Z,9.03
2019-03-24T08:52:28.165Z,11.90
2019-03-24T08:54:56.204Z,12.67
2019-03-24T08:57:24.229Z,9.68
2019-03-24T08:59:52.254Z,11.78
2019-03-24T09:02:20.493Z,9.80
2019-03-24T09:04:48.541Z,7.45
2019-03-24T09:07:16.624Z,11.80
2019-03-24T09:09:44.688Z,10.82
2019-03-24T09:12:12.726Z,9.63
2019-03-24T09:14:40.770Z,12.78
2019-03-24T09:17:08.804Z,11.40
2019-03-24T09:19:36.845Z,11.38
2019-03-24T09:22:04.927Z,10.80
2019-03-24T09:24:32.990Z,10.65
2019-03-24T09:27:01.019Z,9.03
2019-03-24T09:29:29.095Z,8.83
2019-03-24T09:31:57.126Z,8.05
2019-03-24T09:34:25.154Z,13.38
2019-03-24T09:36:53.461Z,11.57
2019-03-24T09:39:21.482Z,11.40
2019-03-24T09:41:49.513Z,10.60
2019-03-24T09:44:17.547Z,11.18
2019-03-24T09:46:45.602Z,10.90
2019-03-24T09:49:13.714Z,9.80
2019-03-24T09:51:41.803Z,6.97
2019-03-24T09:54:09.811Z,9.20
2019-03-24T09:56:37.860Z,10.78
2019-03-24T09:59:05.956Z,11.43
2019-03-24T10:01:33.975Z,11.53
2019-03-24T10:04:02.054Z,8.78
2019-03-24T10:06:30.110Z,10.72
2019-03-24T10:08:58.156Z,13.68
2019-03-24T10:11:26.263Z,9.98
2019-03-24T10:13:54.298Z,12.98
2019-03-24T10:16:22.334Z,12.50
2019-03-24T10:18:50.565Z,11.97
2019-03-24T10:21:18.592Z,9.48
2019-03-24T10:23:46.627Z,10.75
2019-03-24T10:26:14.709Z,11.05
2019-03-24T10:28:42.787Z,11.15
2019-03-24T10:31:10.938Z,8.80
2019-03-24T10:33:39.108Z,12.50
2019-03-24T10:36:07.168Z,10.00
2019-03-24T10:38:35.198Z,7.92
2019-03-24T10:41:03.303Z,10.23
2019-03-24T10:43:31.382Z,11.63
2019-03-24T10:45:59.426Z,9.00
2019-03-24T10:48:33.724Z,9.35
2019-03-24T10:50:57.251Z,6.37
2019-03-24T10:53:25.268Z,13.35
2019-03-24T10:55:53.304Z,9.63
2019-03-24T10:58:21.364Z,7.05
2019-03-24T11:00:49.402Z,10.40
2019-03-24T11:03:17.433Z,8.95
2019-03-24T11:05:45.521Z,7.87
2019-03-24T11:08:13.539Z,8.83
2019-03-24T11:10:41.565Z,10.55
2019-03-24T11:13:09.686Z,8.73
2019-03-24T11:15:37.720Z,13.08
2019-03-24T11:18:05.799Z,10.32
2019-03-24T11:20:33.865Z,9.93
2019-03-24T11:23:01.891Z,12.05
2019-03-24T11:25:29.914Z,8.73
2019-03-24T11:27:58.005Z,12.75
2019-03-24T11:30:26.146Z,12.53
2019-03-24T11:32:54.832Z,11.63
2019-03-24T11:35:22.895Z,11.45
2019-03-24T11:37:50.967Z,15.83
2019-03-24T11:40:19.011Z,8.08
2019-03-24T11:42:47.059Z,14.98
2019-03-24T11:45:15.082Z,12.43
2019-03-24T11:47:43.108Z,12.03
2019-03-24T11:50:11.159Z,18.62
2019-03-24T11:52:39.184Z,14.10
2019-03-24T11:55:07.327Z,15.63
2019-03-24T11:57:35.554Z,12.63
2019-03-24T12:00:03.576Z,9.73
2019-03-24T12:02:31.599Z,13.78
2019-03-24T12:04:59.889Z,9.50
2019-03-24T12:07:27.930Z,11.25
2019-03-24T12:09:56.279Z,8.03
2019-03-24T12:12:24.512Z,9.98
2019-03-24T12:14:52.626Z,8.90
2019-03-24T12:17:20.648Z,14.50
2019-03-24T12:19:56.424Z,8.83
2019-03-24T12:22:18.539Z,10.95
2019-03-24T12:24:46.592Z,8.48
2019-03-24T12:27:14.706Z,11.20
2019-03-24T12:29:42.894Z,10.05
2019-03-24T12:32:10.942Z,8.88
2019-03-24T12:34:38.965Z,8.18
2019-03-24T12:37:07.313Z,9.45
2019-03-24T12:39:35.317Z,8.10
2019-03-24T12:42:03.410Z,6.80
2019-03-24T12:44:31.455Z,9.25
2019-03-24T12:46:59.490Z,7.12
2019-03-24T12:49:27.568Z,9.30
2019-03-24T12:51:55.605Z,11.30
2019-03-24T12:54:25.446Z,8.80
2019-03-24T12:56:53.432Z,10.05
2019-03-24T12:59:21.522Z,9.13
2019-03-24T13:01:49.595Z,7.35
2019-03-24T13:04:17.626Z,8.35
2019-03-24T13:06:45.684Z,9.43
2019-03-24T13:09:13.718Z,8.15
2019-03-24T13:11:41.777Z,5.62
2019-03-24T13:14:09.791Z,4.80
2019-03-24T13:16:37.856Z,6.35
2019-03-24T13:19:05.941Z,7.17
2019-03-24T13:21:34.013Z,7.60
2019-03-24T13:24:02.145Z,5.95
2019-03-24T13:26:30.176Z,7.50
2019-03-24T13:28:58.183Z,4.83
2019-03-24T13:31:26.310Z,7.53
2019-03-24T13:33:54.352Z,7.72
2019-03-24T13:36:22.400Z,8.30
2019-03-24T13:38:50.451Z,5.40
2019-03-24T13:41:18.560Z,4.00
2019-03-24T13:43:46.676Z,6.72
2019-03-24T13:46:14.725Z,5.37
2019-03-24T13:48:42.777Z,6.42
2019-03-24T13:51:10.836Z,7.47
2019-03-24T13:53:38.886Z,3.98
2019-03-24T13:56:10.309Z,5.45
2019-03-24T13:58:38.452Z,5.60
2019-03-24T14:01:09.661Z,4.17
2019-03-24T14:03:37.757Z,6.58
2019-03-24T14:06:05.790Z,5.67
2019-03-24T14:08:33.862Z,5.08
2019-03-24T14:11:01.975Z,3.85
2019-03-24T14:13:30.028Z,3.83
2019-03-24T14:15:58.095Z,4.78
2019-03-24T14:18:26.152Z,5.53
2019-03-24T14:20:54.213Z,6.90
2019-03-24T14:23:22.389Z,4.90
2019-03-24T14:25:50.750Z,3.65
2019-03-24T14:28:18.841Z,5.35
2019-03-24T14:30:46.884Z,6.20
2019-03-24T14:33:14.972Z,4.25
2019-03-24T14:35:43.082Z,6.12
2019-03-24T14:38:11.072Z,4.65
2019-03-24T14:40:39.237Z,5.60
2019-03-24T14:43:07.488Z,5.22
2019-03-24T14:45:35.509Z,5.70
2019-03-24T14:48:03.569Z,6.97
2019-03-24T14:50:31.653Z,7.17
2019-03-24T14:52:59.802Z,5.28
2019-03-24T14:55:27.891Z,7.97
2019-03-24T14:57:55.932Z,5.37
2019-03-24T15:00:24.151Z,4.80
2019-03-24T15:02:52.228Z,6.37
2019-03-24T15:05:20.280Z,4.55
2019-03-24T15:07:48.339Z,3.50
2019-03-24T15:10:16.383Z,5.10
2019-03-24T15:12:44.428Z,6.05
2019-03-24T15:15:12.540Z,7.50
2019-03-24T15:17:40.608Z,3.87
2019-03-24T15:20:08.810Z,6.25
2019-03-24T15:22:36.885Z,7.72
2019-03-24T15:25:04.971Z,6.58
2019-03-24T15:27:33.001Z,5.40
2019-03-24T15:30:01.046Z,4.60
2019-03-24T15:32:29.111Z,6.05
2019-03-24T15:34:57.329Z,5.62
2019-03-24T15:37:25.423Z,6.97
2019-03-24T15:39:53.445Z,4.72
2019-03-24T15:42:21.478Z,5.95
2019-03-24T15:44:49.581Z,3.72
2019-03-24T15:47:17.603Z,5.95
2019-03-24T15:49:45.631Z,5.72
2019-03-24T15:52:13.688Z,4.95
2019-03-24T15:54:41.728Z,5.53
2019-03-24T15:57:09.756Z,4.30
2019-03-24T15:59:37.816Z,5.53
2019-03-24T16:02:05.872Z,6.10
2019-03-24T16:04:33.920Z,5.08
2019-03-24T16:07:01.974Z,6.95
2019-03-24T16:09:30.139Z,9.43
2019-03-24T16:11:58.205Z,6.00
2019-03-24T16:14:26.288Z,7.00
2019-03-24T16:16:54.338Z,8.23
2019-03-24T16:19:22.376Z,4.60
2019-03-24T16:21:51.275Z,9.23
2019-03-24T16:24:19.388Z,8.33
2019-03-24T16:26:47.499Z,9.80
2019-03-24T16:29:15.756Z,5.83
2019-03-24T16:31:44.017Z,6.42
2019-03-24T16:34:12.127Z,7.58
2019-03-24T16:36:40.351Z,7.50
2019-03-24T16:39:08.372Z,5.08
2019-03-24T16:41:36.477Z,7.90
2019-03-24T16:44:04.658Z,7.87
2019-03-24T16:46:32.713Z,7.03
2019-03-24T16:49:00.730Z,6.95
2019-03-24T16:51:38.156Z,6.25
2019-03-24T16:53:58.615Z,4.45
2019-03-24T16:56:26.667Z,7.55
2019-03-24T16:58:54.698Z,4.33
2019-03-24T17:01:22.726Z,4.37
2019-03-24T17:03:50.770Z,5.25
2019-03-24T17:06:18.808Z,4.22
2019-03-24T17:08:46.842Z,6.25
2019-03-24T17:11:14.928Z,5.62
2019-03-24T17:13:43.047Z,7.37
2019-03-24T17:16:11.138Z,5.78
2019-03-24T17:18:39.181Z,6.87
2019-03-24T17:21:07.219Z,7.05
2019-03-24T17:23:35.238Z,5.08
2019-03-24T17:26:03.439Z,6.92
2019-03-24T17:28:31.485Z,4.92
2019-03-24T17:30:59.495Z,6.47
2019-03-24T17:33:27.532Z,5.55
2019-03-24T17:35:55.738Z,5.85
2019-03-24T17:38:23.739Z,5.22
2019-03-24T17:40:51.788Z,4.95
2019-03-24T17:43:19.833Z,8.58
2019-03-24T17:45:47.910Z,4.42
2019-03-24T17:48:16.008Z,4.70
2019-03-24T17:50:44.051Z,4.53
2019-03-24T17:53:12.104Z,4.80
2019-03-24T17:55:40.173Z,6.60
2019-03-24T17:58:08.240Z,5.12
2019-03-24T18:00:36.353Z,4.90
2019-03-24T18:03:04.572Z,4.22
2019-03-24T18:05:32.622Z,4.28
2019-03-24T18:08:00.688Z,6.08
2019-03-24T18:10:28.841Z,5.00
2019-03-24T18:12:56.870Z,3.17
2019-03-24T18:15:24.924Z,4.47
2019-03-24T18:17:52.963Z,4.78
2019-03-24T18:20:21.003Z,2.70
2019-03-24T18:22:51.802Z,4.40
2019-03-24T18:25:19.942Z,4.33
2019-03-24T18:27:47.982Z,5.58
2019-03-24T18:30:16.077Z,4.60
2019-03-24T18:32:44.279Z,3.33
2019-03-24T18:35:12.382Z,4.58
2019-03-24T18:37:40.511Z,3.52
2019-03-24T18:40:08.539Z,2.77
2019-03-24T18:42:36.584Z,5.25
2019-03-24T18:45:04.653Z,4.58
2019-03-24T18:47:32.751Z,5.37
2019-03-24T18:50:00.845Z,5.40
2019-03-24T18:52:28.969Z,5.37
2019-03-24T18:54:56.988Z,4.65
2019-03-24T18:57:25.018Z,9.18
2019-03-24T18:59:53.087Z,6.55
2019-03-24T19:02:21.174Z,8.15
2019-03-24T19:04:49.368Z,5.78
2019-03-24T19:07:17.412Z,8.90
2019-03-24T19:09:45.477Z,13.18
2019-03-24T19:12:13.553Z,11.30
2019-03-24T19:14:41.558Z,12.75
2019-03-24T19:17:10.206Z,9.55
2019-03-24T19:19:38.432Z,12.90
2019-03-24T19:22:06.517Z,6.33
2019-03-24T19:24:34.637Z,7.40
2019-03-24T19:27:02.722Z,6.17
2019-03-24T19:29:30.796Z,5.33
2019-03-24T19:31:58.984Z,7.87
2019-03-24T19:34:27.102Z,8.35
2019-03-24T19:36:55.139Z,8.40
2019-03-24T19:39:23.170Z,6.58
2019-03-24T19:41:51.240Z,7.47
2019-03-24T19:44:19.388Z,5.22
2019-03-24T19:46:47.573Z,4.55
2019-03-24T19:49:15.712Z,3.80
2019-03-24T19:51:43.718Z,6.00
2019-03-24T19:54:11.756Z,7.37
2019-03-24T19:56:40.031Z,5.55
2019-03-24T19:59:08.138Z,7.35
2019-03-24T20:01:36.195Z,5.55
2019-03-24T20:04:04.328Z,2.70
2019-03-24T20:06:32.365Z,8.95
2019-03-24T20:09:00.394Z,4.50
2019-03-24T20:11:28.447Z,5.83
2019-03-24T20:13:56.588Z,6.08
2019-03-24T20:16:24.695Z,6.80
2019-03-24T20:18:52.857Z,4.62
2019-03-24T20:21:21.153Z,7.70
2019-03-24T20:23:49.298Z,6.10
2019-03-24T20:26:17.347Z,5.22
2019-03-24T20:28:45.441Z,4.85
2019-03-24T20:31:13.528Z,4.90
2019-03-24T20:33:41.675Z,5.92
2019-03-24T20:36:09.862Z,4.75
2019-03-24T20:38:37.915Z,4.10
2019-03-24T20:41:05.992Z,5.12
2019-03-24T20:43:34.041Z,6.95
2019-03-24T20:46:02.367Z,4.37
2019-03-24T20:48:30.431Z,5.40
2019-03-24T20:50:58.530Z,4.05
2019-03-24T20:53:26.654Z,4.70
2019-03-24T20:55:55.027Z,5.10
2019-03-24T20:58:23.066Z,4.70
2019-03-24T21:00:51.143Z,4.17
2019-03-24T21:03:19.291Z,3.58
2019-03-24T21:05:47.365Z,5.67
2019-03-24T21:08:15.422Z,4.62
2019-03-24T21:10:43.541Z,4.67
2019-03-24T21:13:14.049Z,3.75
2019-03-24T21:15:42.175Z,5.25
2019-03-24T21:18:10.264Z,4.50
2019-03-24T21:20:38.409Z,4.35
2019-03-24T21:23:06.704Z,4.90
2019-03-24T21:25:35.249Z,3.30
2019-03-24T21:28:03.319Z,5.12
2019-03-24T21:30:31.446Z,4.58
2019-03-24T21:32:59.529Z,3.52
2019-03-24T21:35:27.642Z,4.20
2019-03-24T21:37:55.769Z,4.45
2019-03-24T21:40:23.887Z,4.80
2019-03-24T21:42:53.367Z,3.72
2019-03-24T21:45:21.466Z,5.30
2019-03-24T21:47:49.558Z,3.40
2019-03-24T21:50:17.618Z,4.20
2019-03-24T21:52:45.877Z,3.17
2019-03-24T21:55:14.022Z,4.17
2019-03-24T21:57:42.169Z,4.28
2019-03-24T22:00:10.409Z,3.67
2019-03-24T22:02:41.587Z,4.47
2019-03-24T22:05:10.748Z,3.87
2019-03-24T22:07:38.877Z,5.35
2019-03-24T22:10:06.937Z,4.28
2019-03-24T22:12:38.043Z,3.70
2019-03-24T22:15:06.095Z,3.37
2019-03-24T22:17:34.392Z,23.92
2019-03-24T22:20:02.449Z,11.45
2019-03-24T22:22:30.552Z,7.62
2019-03-24T22:24:58.575Z,5.20
2019-03-24T22:27:26.659Z,6.15
2019-03-24T22:29:54.803Z,7.10
2019-03-24T22:32:23.420Z,8.53
2019-03-24T22:34:52.620Z,4.03
2019-03-24T22:37:21.124Z,5.25
2019-03-24T22:39:49.555Z,5.50
2019-03-24T22:42:17.893Z,4.58
2019-03-24T22:44:46.109Z,5.10
2019-03-24T22:47:14.148Z,5.50
2019-03-24T22:49:42.145Z,6.28
2019-03-24T22:52:10.236Z,2.90
2019-03-24T22:54:38.288Z,4.53
2019-03-24T22:57:06.312Z,5.42
2019-03-24T22:59:34.389Z,4.47
2019-03-24T23:02:02.500Z,4.83
2019-03-24T23:04:30.637Z,7.15
2019-03-24T23:06:58.817Z,3.50
2019-03-24T23:09:26.893Z,4.33
2019-03-24T23:11:54.937Z,3.22
2019-03-24T23:14:23.190Z,6.12
2019-03-24T23:16:51.313Z,3.55
2019-03-24T23:19:19.377Z,5.45
2019-03-24T23:21:47.470Z,4.60
2019-03-24T23:24:16.110Z,6.20
2019-03-24T23:26:44.337Z,4.65
2019-03-24T23:29:12.416Z,5.42
2019-03-24T23:31:40.465Z,4.05
2019-03-24T23:34:08.481Z,4.28
2019-03-24T23:36:36.548Z,2.83
2019-03-24T23:39:05.603Z,4.40
2019-03-24T23:41:33.642Z,5.95
2019-03-24T23:44:03.894Z,4.65
2019-03-24T23:46:31.696Z,4.42
2019-03-24T23:48:59.801Z,4.90
2019-03-24T23:51:27.907Z,4.15
2019-03-24T23:53:55.980Z,5.12
2019-03-24T23:56:24.057Z,3.85
2019-03-24T23:58:52.113Z,5.72
